Daniel Field
KDNL : now visible

Airfield :











YOU CAN JOIN US ON...

 
LOGIN :

Register | Disclaimer

   EN    FR    IT 

 









Legend :    VFR   Marginal VFR   IFR   Intensive IFR   Very Intensive IFR
Visi :
Ceiling :
>= 8 km
>= 3000ft
5 to 8 km
1000 to 3000 ft
1500m to 5 km
500 to 1000 ft
800 to 1500m
200 to 500 ft
< 800m
< 200 ft
Symbols :   Thunderstorms  Fog  Heavy snow  Heavy precipitations  Wind > 20 kt






- Airport Elevation : 423 ft


KDNL - Daniel Field

CURRENT METAR :
  • 142153Z AUTO 00000KT 10SM OVC014 08/01 A3025 RMK AO2 SLP245 T00830011

EXPIRED METARs :
  • 142132Z AUTO 02007KT 10SM OVC014 08/01 A3024 RMK AO2 T00830011
  • 142053Z AUTO 03005KT 10SM OVC015 08/01 A3026 RMK AO2 SLP247 T00830006 56014
  • 141953Z AUTO 02005KT 10SM OVC016 08/00 A3027 RMK AO2 SLP252 T00830000
  • 141853Z AUTO 03004KT 10SM OVC016 08/M01 A3028 RMK AO2 SLP255 T00831006

TAF KDNL
Valid from the 14 at 20:00 until the 15 at 18:00 UTC


142021Z 1420/1518 02006KT P6SM VCSH OVC015
FM142300 03007KT 5SM -RA BR OVC015
FM150400 02006KT 4SM -RA BR BKN007 OVC015
FM151200 03008KT 2SM RA BR SCT003 OVC007



MET'MAP, your aeronautical weather chart ! - Copyright ORBIFLY December 2007 - Disclaimer

ORBIFLY MET'MAP TEAM :

Programming & Development : Alexandra Zaïnal
Concept & Development : Baudouin d'Aumeries
Co-Development & Prog : Marc-Olivier Méhu
Technical & hardware support : Manuel Goepfert

Contact : metmap@orbifly.com




SOURCES & CREDITS :

   NOAA       Earth
Advisory